Time;durP1;ratioP1;P1;durP2;ratioP2;P2;SDS_P1;SDS_P2;PMS_P1;PMS_P2;Temp;Humidity;BMP_temperature;BMP_pressure;BME280_temperature;BME280_humidity;BME280_pressure;Samples;Min_cycle;Max_cycle;Signal;HPM_P1;HPM_P2
2023/01/18 00:01:46;;;;;;;3.00;2.20;;;;;;;-0.49;96.07;97340.37;1446954;95;21093;-94
2023/01/18 00:10:04;;;;;;;4.22;2.45;;;;;;;-0.52;96.15;97343.06;1485695;93;21138;-96
2023/01/18 00:12:53;;;;;;;;;;;;;;;-0.52;96.27;97339.22;1540296;90;21179;-95
2023/01/18 00:18:52;;;;;;;3.67;2.62;;;;;;;-0.54;96.26;97335.88;1483199;94;21183;-95
2023/01/18 00:21:43;;;;;;;4.10;2.80;;;;;;;-0.55;96.26;97335.50;1495903;94;21193;-95
2023/01/18 00:24:21;;;;;;;4.78;2.42;;;;;;;-0.56;96.32;97338.94;1455447;96;21093;-95
2023/01/18 00:27:08;;;;;;;6.10;3.17;;;;;;;-0.57;96.26;97342.41;1423381;97;21677;-95
2023/01/18 00:33:10;;;;;;;4.03;2.90;;;;;;;-0.58;96.31;97338.19;1371477;100;21252;-95
2023/01/18 00:35:47;;;;;;;5.83;3.17;;;;;;;-0.58;96.36;97338.19;1348874;103;21661;-96
2023/01/18 00:41:08;;;;;;;4.75;3.15;;;;;;;-0.59;96.37;97339.06;1367817;102;21187;-94
2023/01/18 00:43:53;;;;;;;5.15;3.12;;;;;;;-0.64;96.30;97339.70;1359615;103;21666;-94
2023/01/18 00:52:55;;;;;;;4.80;3.05;;;;;;;-0.73;96.30;97332.80;1333540;104;21093;-95
2023/01/18 00:59:07;;;;;;;4.37;3.20;;;;;;;-0.80;96.29;97342.88;1290279;106;21175;-94
2023/01/18 01:02:34;;;;;;;5.55;2.85;;;;;;;-0.83;96.28;97349.41;1328619;102;21183;-95
2023/01/18 01:08:31;;;;;;;5.15;3.02;;;;;;;-0.90;96.40;97362.06;1361340;103;21108;-94
2023/01/18 01:30:57;;;;;;;9.00;2.77;;;;;;;-1.11;96.36;97377.82;1353830;103;21893;-95
2023/01/18 01:40:03;;;;;;;4.25;3.42;;;;;;;-1.14;96.38;97389.02;1267380;110;21156;-96
2023/01/18 01:59:44;;;;;;;6.08;3.77;;;;;;;-1.07;96.53;97418.23;1283851;106;21210;-96
2023/01/18 02:02:20;;;;;;;8.68;4.15;;;;;;;-1.08;96.60;97426.36;1292705;108;21280;-96
2023/01/18 03:41:13;;;;;;;15.05;11.50;;;;;;;-0.91;97.00;97448.78;1358801;102;21136;-94
2023/01/18 03:44:01;;;;;;;13.72;10.48;;;;;;;-0.85;97.14;97447.72;1361320;101;21569;-95
2023/01/18 03:46:53;;;;;;;;;;;;;;;;;;;;;
2023/01/18 03:52:49;;;;;;;13.35;9.55;;;;;;;-0.66;97.50;97452.98;1287425;108;21156;-93
2023/01/18 04:01:29;;;;;;;12.88;8.68;;;;;;;-0.49;97.42;97456.55;1314162;106;21178;-95
2023/01/18 04:04:10;;;;;;;13.65;9.90;;;;;;;-0.44;97.26;97456.39;1301469;107;21106;-94
2023/01/18 04:17:03;;;;;;;12.20;9.45;;;;;;;-0.35;97.29;97454.73;1268499;109;21129;-95
2023/01/18 04:19:34;;;;;;;11.93;8.90;;;;;;;-0.31;97.37;97447.33;1276036;110;21190;-94
2023/01/18 04:22:00;;;;;;;11.05;7.80;;;;;;;-0.32;97.19;97439.68;1271721;110;21382;-93
2023/01/18 04:24:28;;;;;;;10.10;8.07;;;;;;;-0.33;97.17;97432.89;1266015;111;21187;-94
2023/01/18 04:26:54;;;;;;;;;;;;;;;-0.36;97.03;97431.28;1268717;110;21168;-93
2023/01/18 04:29:27;;;;;;;10.78;7.62;;;;;;;-0.39;97.10;97432.69;1264814;110;20152;-94
2023/01/18 04:31:56;;;;;;;10.70;8.13;;;;;;;-0.41;97.04;97424.67;1243639;112;21239;-93
2023/01/18 04:34:28;;;;;;;11.80;8.03;;;;;;;-0.43;97.01;97423.44;1275079;106;21176;-93
2023/01/18 04:36:54;;;;;;;10.63;8.18;;;;;;;-0.42;97.06;97423.84;1338585;105;21147;-93
2023/01/18 04:39:21;;;;;;;10.48;6.85;;;;;;;-0.40;97.21;97421.20;1389591;100;21069;-93
2023/01/18 04:41:48;;;;;;;10.77;7.80;;;;;;;-0.37;97.21;97427.03;1379688;101;21161;-94
2023/01/18 04:44:43;;;;;;;;;;;;;;;;;;;;;
2023/01/18 04:47:04;;;;;;;13.53;9.63;;;;;;;-0.38;97.05;97433.06;1550141;90;21043;-94
2023/01/18 04:49:27;;;;;;;14.07;9.63;;;;;;;-0.40;97.04;97419.47;1537429;91;21030;-92
2023/01/18 04:51:57;;;;;;;15.83;10.65;;;;;;;-0.38;97.14;97415.12;1536326;91;21128;-93
2023/01/18 04:54:29;;;;;;;16.37;9.73;;;;;;;-0.35;97.17;97414.98;1554139;88;21109;-94
2023/01/18 04:56:59;;;;;;;16.48;10.50;;;;;;;-0.32;97.16;97414.86;1570963;87;21101;-93
2023/01/18 04:59:32;;;;;;;13.48;9.83;;;;;;;-0.30;97.10;97420.77;1667393;83;21037;-94
2023/01/18 05:01:58;;;;;;;16.80;10.30;;;;;;;-0.28;97.11;97431.81;1686002;83;21055;-94
2023/01/18 05:04:29;;;;;;;16.45;7.83;;;;;;;-0.28;97.00;97440.79;1659135;84;21029;-93
2023/01/18 05:07:01;;;;;;;15.25;9.70;;;;;;;-0.31;96.87;97449.89;1663703;83;21060;-94
2023/01/18 05:09:26;;;;;;;14.83;9.30;;;;;;;-0.38;96.63;97458.70;1677883;83;20993;-93
2023/01/18 05:11:53;;;;;;;15.45;9.83;;;;;;;-0.45;96.51;97464.95;1628971;85;21504;-94
2023/01/18 05:14:19;;;;;;;23.53;14.83;;;;;;;-0.51;96.42;97467.77;1658136;84;20964;-93
2023/01/18 05:16:46;;;;;;;28.30;16.37;;;;;;;-0.62;96.27;97468.63;1647048;83;21038;-94
2023/01/18 05:19:14;;;;;;;28.70;18.12;;;;;;;-0.68;96.26;97469.23;1674933;83;21461;-93
2023/01/18 05:21:44;;;;;;;29.50;17.80;;;;;;;-0.75;96.29;97462.70;1641520;85;21018;-94
2023/01/18 05:24:11;;;;;;;27.22;16.27;;;;;;;-0.78;96.29;97462.81;1638481;84;21024;-94
2023/01/18 05:26:37;;;;;;;24.98;16.00;;;;;;;-0.84;96.30;97461.77;1637979;85;21035;-94
2023/01/18 05:29:04;;;;;;;23.10;14.53;;;;;;;-0.87;96.24;97464.42;1640375;85;21537;-93
2023/01/18 05:31:31;;;;;;;29.43;16.60;;;;;;;-0.90;96.25;97458.13;1662685;83;21080;-94
2023/01/18 05:33:57;;;;;;;25.45;17.30;;;;;;;-0.91;96.19;97456.47;1661115;84;21078;-94
2023/01/18 05:36:26;;;;;;;26.07;16.67;;;;;;;-0.92;96.23;97454.81;1627530;85;21010;-93
2023/01/18 05:38:54;;;;;;;26.87;16.82;;;;;;;-0.93;96.21;97458.25;1631873;84;21045;-93
2023/01/18 05:41:21;;;;;;;23.95;16.50;;;;;;;-0.94;96.27;97460.43;1618809;85;21005;-94
2023/01/18 05:43:47;;;;;;;25.13;15.90;;;;;;;-0.94;96.27;97464.27;1647949;83;21014;-93
2023/01/18 05:46:19;;;;;;;21.57;14.60;;;;;;;-0.96;96.23;97469.89;1687191;82;21024;-94
2023/01/18 05:48:47;;;;;;;18.50;14.35;;;;;;;-0.95;96.29;97467.73;1659629;82;21039;-94
2023/01/18 05:51:15;;;;;;;24.07;14.30;;;;;;;-0.95;96.32;97474.14;1678505;82;21058;-93
2023/01/18 05:53:45;;;;;;;18.82;13.53;;;;;;;-0.94;96.29;97480.92;1670679;83;21257;-94
2023/01/18 05:56:12;;;;;;;17.47;12.33;;;;;;;-0.96;96.22;97481.42;1682734;83;21019;-94
2023/01/18 05:58:40;;;;;;;19.80;12.80;;;;;;;-0.96;96.24;97482.70;1657172;82;20970;-93
2023/01/18 06:01:07;;;;;;;19.82;13.43;;;;;;;-0.96;96.20;97479.69;1680408;83;21065;-94
2023/01/18 06:03:37;;;;;;;26.10;15.28;;;;;;;-0.96;96.16;97483.53;1660305;83;21098;-93
2023/01/18 06:06:07;;;;;;;23.30;14.73;;;;;;;-0.99;96.10;97472.57;1662702;83;21078;-93
2023/01/18 06:08:36;;;;;;;20.35;15.18;;;;;;;-1.01;96.16;97483.31;1690345;82;20990;-94
2023/01/18 06:17:14;;;;;;;;;;;;;;;;;;;;;
2023/01/18 06:20:03;;;;;;;;;;;;;;;;;;;;;
2023/01/18 06:26:04;;;;;;;;;;;;;;;;;;;;;
2023/01/18 06:36:10;;;;;;;;;;;;;;;;;;;;;
2023/01/18 06:55:19;;;;;;;;;;;;;;;;;;;;;
2023/01/18 07:00:10;;;;;;;;;;;;;;;;;;;;;
2023/01/18 07:04:06;;;;;;;15.38;10.70;;;;;;;-1.20;96.23;97494.23;1320242;106;21154;-96
2023/01/18 07:06:38;;;;;;;;;;;;;;;;;;;;;
2023/01/18 07:10:19;;;;;;;17.60;11.45;;;;;;;-1.13;96.49;97499.51;1302768;106;21180;-95
2023/01/18 07:15:16;;;;;;;;;;;;;;;;;;;;;
2023/01/18 07:17:56;;;;;;;13.58;10.53;;;;;;;-1.04;96.39;97503.91;1257911;111;21244;-95
2023/01/18 12:45:01;;;;;;;10.20;7.33;;;;;;;5.14;88.03;97487.72;1360270;99;21137;-95
2023/01/18 12:47:41;;;;;;;15.45;8.18;;;;;;;4.99;88.15;97491.25;1408877;99;21077;-93
2023/01/18 12:50:37;;;;;;;19.98;12.93;;;;;;;4.85;87.97;97488.66;1407762;99;21128;-94
2023/01/18 12:53:40;;;;;;;;;;;;;;;;;;;;;
2023/01/18 15:35:13;;;;;;;;;;;;;;;;;;;;;
2023/01/18 21:32:12;;;;;;;18.40;11.33;;;;;;;0.39;86.62;97912.53;1715385;78;21569;-94
2023/01/18 21:34:39;;;;;;;16.83;10.70;;;;;;;0.39;86.68;97925.38;1719882;80;21542;-92
2023/01/18 21:37:05;;;;;;;16.17;11.55;;;;;;;0.37;86.67;97919.48;1725886;80;21037;-94
2023/01/18 21:39:43;;;;;;;16.80;11.80;;;;;;;0.36;86.68;97928.05;1728518;80;21497;-93
2023/01/18 21:47:57;;;;;;;;;;;;;;;0.24;86.87;97919.50;1714124;80;21026;-94
2023/01/18 21:55:59;;;;;;;22.90;12.58;;;;;;;0.30;86.88;97956.51;1722851;80;21054;-93
2023/01/18 22:01:18;;;;;;;19.37;11.00;;;;;;;0.29;86.96;97944.58;1703226;81;21528;-94
2023/01/18 22:09:54;;;;;;;14.80;10.30;;;;;;;0.26;87.21;97954.95;1637997;82;21060;-95
2023/01/18 22:12:22;;;;;;;24.60;14.68;;;;;;;0.26;87.22;97960.09;1672163;83;20974;-94
2023/01/18 22:14:49;;;;;;;21.43;12.27;;;;;;;0.28;87.22;97967.27;1681869;83;21084;-94
2023/01/18 22:17:17;;;;;;;19.65;11.12;;;;;;;0.27;87.20;97965.60;1666214;83;21500;-94
2023/01/18 22:19:44;;;;;;;31.93;17.70;;;;;;;0.25;87.21;97963.52;1677459;83;21076;-93
2023/01/18 22:22:14;;;;;;;102.20;44.25;;;;;;;0.25;87.20;97971.22;1664113;83;21018;-93
2023/01/18 22:24:40;;;;;;;143.72;55.90;;;;;;;0.22;87.23;97972.16;1681471;83;21012;-93
2023/01/18 22:27:11;;;;;;;94.43;42.87;;;;;;;0.19;87.28;97969.25;1675115;84;21026;-93
2023/01/18 22:29:39;;;;;;;69.03;31.30;;;;;;;0.18;87.28;97975.28;1661508;83;21650;-94
2023/01/18 22:32:08;;;;;;;48.10;24.55;;;;;;;0.21;87.33;97978.20;1670613;83;21122;-94
2023/01/18 22:34:35;;;;;;;42.13;21.85;;;;;;;0.20;87.35;97977.36;1681186;83;21074;-92
2023/01/18 22:37:02;;;;;;;40.50;19.37;;;;;;;0.20;87.35;97979.93;1617381;86;21114;-94
2023/01/18 22:39:28;;;;;;;38.23;19.02;;;;;;;0.21;87.46;97984.16;1631463;84;21682;-92
2023/01/18 22:41:55;;;;;;;34.47;17.77;;;;;;;0.23;87.47;97985.86;1680553;83;21001;-94
2023/01/18 22:44:31;;;;;;;32.90;18.33;;;;;;;0.24;87.52;97987.52;1655091;83;21502;-93
2023/01/18 22:47:04;;;;;;;;;;;;;;;0.25;87.58;97994.33;1678306;83;21018;-93
2023/01/18 22:49:37;;;;;;;42.23;24.00;;;;;;;0.26;87.60;98001.16;1648876;84;20560;-93
2023/01/18 22:52:05;;;;;;;33.50;18.62;;;;;;;0.23;87.53;98000.81;1669783;81;21030;-94
2023/01/18 22:54:32;;;;;;;24.93;16.47;;;;;;;0.21;87.58;98003.41;1734790;81;21541;-94
2023/01/18 22:56:59;;;;;;;22.73;13.50;;;;;;;0.18;87.53;98009.94;1718412;81;21546;-93
2023/01/18 22:59:27;;;;;;;19.65;10.82;;;;;;;0.16;87.69;98019.41;1729579;80;21051;-93
2023/01/18 23:01:59;;;;;;;16.12;10.63;;;;;;;0.15;87.74;98024.16;1706205;81;21006;-94
2023/01/18 23:04:25;;;;;;;18.48;11.50;;;;;;;0.13;87.79;98034.91;1693563;81;21507;-93
2023/01/18 23:06:54;;;;;;;15.03;10.20;;;;;;;0.11;87.75;98036.70;1683703;83;21078;-93
2023/01/18 23:09:21;;;;;;;19.25;12.15;;;;;;;0.10;87.76;98031.61;1712833;81;20974;-92
2023/01/18 23:11:47;;;;;;;20.08;12.82;;;;;;;0.09;87.83;98037.19;1675496;83;21051;-95
2023/01/18 23:20:03;;;;;;;;;;;;;;;;;;;;;
2023/01/18 23:22:24;;;;;;;18.77;12.30;;;;;;;0.09;88.00;98040.20;1738410;79;21042;-93
2023/01/18 23:24:53;;;;;;;16.37;11.65;;;;;;;0.08;88.06;98043.19;1701803;82;21053;-93
2023/01/18 23:27:20;;;;;;;20.37;13.53;;;;;;;0.05;88.16;98044.57;1719979;79;21006;-92
2023/01/18 23:29:55;;;;;;;20.07;13.03;;;;;;;0.03;88.33;98045.50;1736058;80;21058;-93
2023/01/18 23:32:18;;;;;;;20.30;12.82;;;;;;;0.02;88.38;98048.52;1737985;80;21037;-93
2023/01/18 23:34:46;;;;;;;20.63;13.37;;;;;;;0.02;88.49;98044.67;1703580;81;21136;-93
2023/01/18 23:37:13;;;;;;;18.23;13.22;;;;;;;0.01;88.62;98048.59;1666950;83;20991;-93
2023/01/18 23:54:17;;;;;;;19.20;13.18;;;;;;;-0.05;88.82;98068.86;1677406;83;21034;-93
2023/01/18 23:56:46;;;;;;;20.68;14.20;;;;;;;-0.06;88.86;98073.13;1685752;82;21094;-94
2023/01/18 23:59:13;;;;;;;21.87;14.73;;;;;;;-0.03;88.98;98092.72;1677388;83;20970;-93
